Time;durP1;ratioP1;P1;durP2;ratioP2;P2;SDS_P1;SDS_P2;PMS_P1;PMS_P2;Temp;Humidity;BMP_temperature;BMP_pressure;BME280_temperature;BME280_humidity;BME280_pressure;Samples;Min_cycle;Max_cycle;Signal;HPM_P1;HPM_P2
2022/08/15 00:01:44;;;;;;;;;;;20.80;51.50;;;;;;5138298;27;19936;-44
2022/08/15 00:04:10;;;;;;;;;;;20.60;50.60;;;;;;5142989;27;20174;-44
2022/08/15 00:06:39;;;;;;;;;;;20.50;50.00;;;;;;5148344;27;20525;-45
2022/08/15 00:09:06;;;;;;;;;;;19.90;50.60;;;;;;5142915;27;20396;-46
2022/08/15 00:11:33;;;;;;;;;;;20.00;49.90;;;;;;5147090;27;20417;-53
2022/08/15 00:14:04;;;;;;;;;;;20.00;49.60;;;;;;5145383;27;19923;-46
2022/08/15 00:16:33;;;;;;;;;;;20.00;49.30;;;;;;5142895;27;19927;-47
2022/08/15 00:19:00;;;;;;;;;;;20.20;52.30;;;;;;5144130;27;20217;-47
2022/08/15 00:21:25;;;;;;;;;;;21.10;53.50;;;;;;5141365;27;19930;-45
2022/08/15 00:23:51;;;;;;;;;;;21.80;51.90;;;;;;5142738;27;20021;-46
2022/08/15 00:26:18;;;;;;;;;;;21.10;51.70;;;;;;5148411;27;19950;-46
2022/08/15 00:28:43;;;;;;;;;;;20.50;51.30;;;;;;5142805;27;19937;-45
2022/08/15 00:31:10;;;;;;;;;;;20.30;50.90;;;;;;5142734;27;19930;-45
2022/08/15 00:33:36;;;;;;;;;;;20.20;50.50;;;;;;5148082;27;19936;-46
2022/08/15 00:36:01;;;;;;;;;;;20.00;50.20;;;;;;5142495;27;19927;-45
2022/08/15 00:38:28;;;;;;;;;;;19.80;50.30;;;;;;5143100;27;19987;-47
2022/08/15 00:41:55;;;;;;;;;;;19.90;49.70;;;;;;5113443;27;20388;-47
2022/08/15 00:43:53;;;;;;;;;;;20.00;51.70;;;;;;5124410;27;19923;-45
2022/08/15 00:46:19;;;;;;;;;;;21.00;54.40;;;;;;5147966;27;19923;-49
2022/08/15 00:48:46;;;;;;;;;;;21.80;53.10;;;;;;5143021;27;19931;-45
2022/08/15 00:51:17;;;;;;;;;;;21.00;52.40;;;;;;5124291;27;19923;-48
2022/08/15 00:53:44;;;;;;;;;;;20.60;52.00;;;;;;5148162;27;19923;-46
2022/08/15 00:56:10;;;;;;;;;;;20.30;51.20;;;;;;5138519;27;19942;-47
2022/08/15 00:58:36;;;;;;;;;;;20.20;50.80;;;;;;5141115;27;20339;-46
2022/08/15 01:01:03;;;;;;;;;;;19.90;50.80;;;;;;5147701;27;19923;-46
2022/08/15 01:03:31;;;;;;;;;;;19.80;50.70;;;;;;5142208;27;19931;-45
2022/08/15 01:05:58;;;;;;;;;;;20.00;49.60;;;;;;5142363;27;19971;-47
2022/08/15 01:08:26;;;;;;;;;;;20.30;53.50;;;;;;5147930;27;20052;-44
2022/08/15 01:10:53;;;;;;;;;;;21.10;54.90;;;;;;5123832;27;19923;-45
2022/08/15 01:13:19;;;;;;;;;;;21.90;53.30;;;;;;5127532;27;20374;-48
2022/08/15 01:15:44;;;;;;;;;;;21.20;52.50;;;;;;5138449;27;19989;-47
2022/08/15 01:18:10;;;;;;;;;;;20.80;51.80;;;;;;5142184;27;19930;-51
2022/08/15 01:20:36;;;;;;;;;;;20.40;51.30;;;;;;5147682;27;19987;-45
2022/08/15 01:23:20;;;;;;;;;;;20.20;50.80;;;;;;5141922;27;19971;-48
2022/08/15 01:25:47;;;;;;;;;;;20.20;50.50;;;;;;5141954;27;19949;-46
2022/08/15 01:28:14;;;;;;;;;;;20.00;50.20;;;;;;5118136;27;19967;-45
2022/08/15 01:30:41;;;;;;;;;;;20.00;49.70;;;;;;5145565;27;20430;-47
2022/08/15 01:33:07;;;;;;;;;;;20.40;54.10;;;;;;5122744;27;20293;-46
2022/08/15 01:35:34;;;;;;;;;;;21.30;55.00;;;;;;5132567;27;20321;-46
2022/08/15 01:38:00;;;;;;;;;;;21.80;53.40;;;;;;5145923;27;20026;-45
2022/08/15 01:40:45;;;;;;;;;;;20.70;53.10;;;;;;5151392;27;20347;-45
2022/08/15 01:43:10;;;;;;;;;;;20.60;52.00;;;;;;5151320;27;20332;-44
2022/08/15 01:45:36;;;;;;;;;;;20.10;51.60;;;;;;5145978;27;19929;-45
2022/08/15 01:48:02;;;;;;;;;;;20.10;51.00;;;;;;5151345;27;19923;-45
2022/08/15 01:50:29;;;;;;;;;;;20.00;50.70;;;;;;5142419;27;19923;-46
2022/08/15 01:52:56;;;;;;;;;;;19.90;50.30;;;;;;5143571;27;19929;-48
2022/08/15 01:55:26;;;;;;;;;;;20.60;54.90;;;;;;5151058;27;19930;-47
2022/08/15 01:57:52;;;;;;;;;;;21.40;55.10;;;;;;5145477;27;20297;-45
2022/08/15 02:00:17;;;;;;;;;;;21.70;53.30;;;;;;5145635;27;20145;-46
2022/08/15 02:02:43;;;;;;;;;;;20.90;52.30;;;;;;5151079;27;19986;-45
2022/08/15 02:05:09;;;;;;;;;;;20.50;51.90;;;;;;5145434;27;20374;-46
2022/08/15 02:07:35;;;;;;;;;;;20.40;51.40;;;;;;5151257;27;19976;-46
2022/08/15 02:10:00;;;;;;;;;;;20.30;50.90;;;;;;5140439;27;19974;-47
2022/08/15 02:12:28;;;;;;;;;;;20.00;50.80;;;;;;5127003;27;20377;-45
2022/08/15 02:14:53;;;;;;;;;;;20.00;50.70;;;;;;5150886;27;19927;-45
2022/08/15 02:17:19;;;;;;;;;;;19.90;50.40;;;;;;5126957;27;20343;-47
2022/08/15 02:19:46;;;;;;;;;;;19.80;52.00;;;;;;5145277;27;20179;-46
2022/08/15 02:22:12;;;;;;;;;;;20.80;55.20;;;;;;5150574;27;19923;-45
2022/08/15 02:24:38;;;;;;;;;;;21.50;55.70;;;;;;5145099;27;19934;-46
2022/08/15 02:27:04;;;;;;;;;;;21.50;54.00;;;;;;5126520;27;19927;-59
2022/08/15 02:29:30;;;;;;;;;;;20.80;53.20;;;;;;5145838;27;20426;-45
2022/08/15 02:31:57;;;;;;;;;;;20.50;52.20;;;;;;5112479;27;19939;-46
2022/08/15 02:34:23;;;;;;;;;;;20.10;51.80;;;;;;5123764;27;20375;-46
2022/08/15 02:36:48;;;;;;;;;;;19.90;51.60;;;;;;5144740;27;19930;-47
2022/08/15 02:39:14;;;;;;;;;;;20.10;50.70;;;;;;5144998;27;19923;-46
2022/08/15 02:41:41;;;;;;;;;;;19.90;50.90;;;;;;5149467;27;20290;-45
2022/08/15 02:44:07;;;;;;;;;;;20.00;53.30;;;;;;5144950;27;20298;-46
2022/08/15 02:46:33;;;;;;;;;;;20.80;56.20;;;;;;5140155;27;19938;-46
2022/08/15 02:49:01;;;;;;;;;;;21.60;56.10;;;;;;5149857;27;20374;-47
2022/08/15 02:51:27;;;;;;;;;;;21.20;54.20;;;;;;5144939;27;20211;-47
2022/08/15 02:53:53;;;;;;;;;;;20.70;53.10;;;;;;5146017;27;19923;-45
2022/08/15 02:56:20;;;;;;;;;;;20.30;52.50;;;;;;5144277;27;19927;-45
2022/08/15 02:58:46;;;;;;;;;;;20.30;51.60;;;;;;5144239;27;20464;-45
2022/08/15 03:01:12;;;;;;;;;;;19.90;51.60;;;;;;5149810;27;19989;-45
2022/08/15 03:03:38;;;;;;;;;;;19.90;50.90;;;;;;5141956;27;20021;-52
2022/08/15 03:06:08;;;;;;;;;;;19.80;50.60;;;;;;5141400;27;20492;-46
2022/08/15 03:08:37;;;;;;;;;;;20.20;54.90;;;;;;5149704;27;20398;-44
2022/08/15 03:11:04;;;;;;;;;;;21.00;57.00;;;;;;5144184;27;19935;-46
2022/08/15 03:13:31;;;;;;;;;;;21.80;55.90;;;;;;5147108;27;19923;-53
2022/08/15 03:15:57;;;;;;;;;;;21.20;54.20;;;;;;5147236;27;20370;-48
2022/08/15 03:18:24;;;;;;;;;;;20.60;53.10;;;;;;5144322;27;20193;-51
2022/08/15 03:20:51;;;;;;;;;;;20.30;52.30;;;;;;5149701;27;20014;-45
2022/08/15 03:23:17;;;;;;;;;;;20.30;51.60;;;;;;5139296;27;19930;-50
2022/08/15 03:25:44;;;;;;;;;;;19.90;51.70;;;;;;5143383;27;20334;-49
2022/08/15 03:28:10;;;;;;;;;;;19.90;51.30;;;;;;5149262;27;19987;-45
2022/08/15 03:30:36;;;;;;;;;;;20.00;50.90;;;;;;5144065;27;19931;-45
2022/08/15 03:33:02;;;;;;;;;;;19.90;52.60;;;;;;5144049;27;20198;-46
2022/08/15 03:35:29;;;;;;;;;;;20.70;56.80;;;;;;5149194;27;19923;-45
2022/08/15 03:37:56;;;;;;;;;;;21.40;57.60;;;;;;5143628;27;19923;-45
2022/08/15 03:40:22;;;;;;;;;;;21.60;55.20;;;;;;5146821;27;19929;-56
2022/08/15 03:42:52;;;;;;;;;;;20.80;54.20;;;;;;5140593;27;20030;-45
2022/08/15 03:45:18;;;;;;;;;;;20.50;52.80;;;;;;5143610;27;20365;-45
2022/08/15 03:47:44;;;;;;;;;;;20.30;52.20;;;;;;5149121;27;19934;-46
2022/08/15 03:50:12;;;;;;;;;;;20.20;51.70;;;;;;5143596;27;20014;-49
2022/08/15 03:52:54;;;;;;;;;;;20.10;51.50;;;;;;5143264;27;20165;-46
2022/08/15 03:55:20;;;;;;;;;;;20.00;51.10;;;;;;5148993;27;19923;-46
2022/08/15 03:57:46;;;;;;;;;;;20.00;50.70;;;;;;5143596;27;20408;-47
2022/08/15 04:00:13;;;;;;;;;;;20.00;53.80;;;;;;5138556;27;20326;-47
2022/08/15 04:02:38;;;;;;;;;;;20.80;57.70;;;;;;5148546;27;19933;-45
2022/08/15 04:05:04;;;;;;;;;;;21.60;57.50;;;;;;5143328;27;20380;-46
2022/08/15 04:07:33;;;;;;;;;;;21.30;55.40;;;;;;5148844;27;19927;-46
2022/08/15 04:09:59;;;;;;;;;;;20.90;54.00;;;;;;5143198;27;19923;-44
2022/08/15 04:12:34;;;;;;;;;;;20.50;53.20;;;;;;5143119;27;19931;-45
2022/08/15 04:15:04;;;;;;;;;;;20.30;52.40;;;;;;5148473;27;19930;-45
2022/08/15 04:17:29;;;;;;;;;;;20.10;51.70;;;;;;5139660;27;19933;-49
2022/08/15 04:19:55;;;;;;;;;;;19.80;51.50;;;;;;5141130;27;20298;-46
2022/08/15 04:22:28;;;;;;;;;;;19.80;51.10;;;;;;5148393;27;19923;-49
2022/08/15 04:24:58;;;;;;;;;;;20.20;54.90;;;;;;5142905;27;19969;-50
2022/08/15 04:27:24;;;;;;;;;;;21.00;58.10;;;;;;5142877;27;20004;-47
2022/08/15 04:29:50;;;;;;;;;;;21.80;57.50;;;;;;5148081;27;19930;-45
2022/08/15 04:32:23;;;;;;;;;;;21.20;55.40;;;;;;5142616;27;19927;-45
2022/08/15 04:34:49;;;;;;;;;;;20.60;54.20;;;;;;5116044;27;19927;-56
2022/08/15 04:37:15;;;;;;;;;;;20.40;53.10;;;;;;5140974;27;20335;-48
2022/08/15 04:39:40;;;;;;;;;;;20.20;52.70;;;;;;5142499;27;19923;-49
2022/08/15 04:42:06;;;;;;;;;;;19.80;52.10;;;;;;5148091;27;19926;-46
2022/08/15 04:44:32;;;;;;;;;;;20.00;51.60;;;;;;5142539;27;19930;-44
2022/08/15 04:46:58;;;;;;;;;;;20.00;50.90;;;;;;5142585;27;20608;-45
2022/08/15 04:49:24;;;;;;;;;;;20.10;54.20;;;;;;5147942;27;19923;-46
2022/08/15 04:51:49;;;;;;;;;;;20.80;58.00;;;;;;5124002;27;19927;-45
2022/08/15 04:54:16;;;;;;;;;;;21.60;58.00;;;;;;5139499;27;19930;-52
2022/08/15 04:56:45;;;;;;;;;;;21.30;55.70;;;;;;5145872;27;19927;-46
2022/08/15 04:59:11;;;;;;;;;;;20.70;54.50;;;;;;5142330;27;19938;-46
2022/08/15 05:01:37;;;;;;;;;;;20.40;53.10;;;;;;5147863;27;19923;-45
2022/08/15 05:04:02;;;;;;;;;;;20.20;52.80;;;;;;5141921;27;19923;-45
2022/08/15 05:06:28;;;;;;;;;;;20.20;52.10;;;;;;5142105;27;20298;-49
2022/08/15 05:08:54;;;;;;;;;;;20.00;51.70;;;;;;5147796;27;20256;-45
2022/08/15 05:11:20;;;;;;;;;;;19.90;51.00;;;;;;5142230;27;19931;-44
2022/08/15 05:13:45;;;;;;;;;;;20.00;50.80;;;;;;5118434;27;20193;-45
2022/08/15 05:16:11;;;;;;;;;;;20.30;56.20;;;;;;5147540;27;19974;-47
2022/08/15 05:18:39;;;;;;;;;;;21.10;58.30;;;;;;5142077;27;19976;-45
2022/08/15 05:21:05;;;;;;;;;;;21.80;57.10;;;;;;5147480;27;20436;-46
2022/08/15 05:23:31;;;;;;;;;;;21.10;55.40;;;;;;5142070;27;20362;-46
2022/08/15 05:25:57;;;;;;;;;;;20.80;53.60;;;;;;5142166;27;19934;-47
2022/08/15 05:28:23;;;;;;;;;;;20.50;53.00;;;;;;5147817;27;19927;-45
2022/08/15 05:30:49;;;;;;;;;;;20.40;52.10;;;;;;5139384;27;20382;-48
2022/08/15 05:33:16;;;;;;;;;;;20.20;52.00;;;;;;5139744;27;20173;-47
2022/08/15 05:35:42;;;;;;;;;;;20.10;51.50;;;;;;5147628;27;19927;-46
2022/08/15 05:38:14;;;;;;;;;;;20.00;51.10;;;;;;5138049;27;19944;-48
2022/08/15 05:40:46;;;;;;;;;;;20.00;51.10;;;;;;5143167;27;19923;-56
2022/08/15 05:43:15;;;;;;;;;;;20.40;56.50;;;;;;5129323;27;20317;-46
2022/08/15 05:45:43;;;;;;;;;;;21.10;58.60;;;;;;5141993;27;19929;-45
2022/08/15 05:48:16;;;;;;;;;;;21.80;56.90;;;;;;5147520;27;19933;-45
2022/08/15 05:50:48;;;;;;;;;;;20.90;55.10;;;;;;5137898;27;19927;-44
2022/08/15 05:53:26;;;;;;;;;;;20.50;54.00;;;;;;5141989;27;19923;-45
2022/08/15 05:55:55;;;;;;;;;;;20.20;53.30;;;;;;5147352;27;19923;-49
2022/08/15 05:58:20;;;;;;;;;;;20.20;52.00;;;;;;5141869;27;20358;-45
2022/08/15 06:00:48;;;;;;;;;;;20.10;51.90;;;;;;5141646;27;19923;-45
2022/08/15 06:03:15;;;;;;;;;;;19.90;51.20;;;;;;5147025;27;20418;-46
2022/08/15 06:05:45;;;;;;;;;;;19.80;52.20;;;;;;5137552;27;20293;-45
2022/08/15 06:08:13;;;;;;;;;;;20.40;57.60;;;;;;5111635;27;20038;-46
2022/08/15 06:10:41;;;;;;;;;;;21.20;59.00;;;;;;5145286;27;20018;-47
2022/08/15 06:13:08;;;;;;;;;;;21.70;57.20;;;;;;5141698;27;19927;-45
2022/08/15 06:15:54;;;;;;;;;;;20.90;55.40;;;;;;5141649;27;19929;-50
2022/08/15 06:18:20;;;;;;;;;;;20.50;53.80;;;;;;5150748;27;20289;-45
2022/08/15 06:20:48;;;;;;;;;;;20.30;52.70;;;;;;5126631;27;19930;-44
2022/08/15 06:23:24;;;;;;;;;;;20.20;52.00;;;;;;5128438;27;20320;-54
2022/08/15 06:25:59;;;;;;;;;;;20.20;51.50;;;;;;5112412;27;20068;-46
2022/08/15 06:28:33;;;;;;;;;;;19.90;51.60;;;;;;5124652;27;20321;-46
2022/08/15 06:31:08;;;;;;;;;;;20.10;51.00;;;;;;5128205;27;19927;-53
2022/08/15 06:33:40;;;;;;;;;;;19.90;51.40;;;;;;5150510;27;20369;-47
2022/08/15 06:36:17;;;;;;;;;;;20.60;56.80;;;;;;5126619;27;20297;-47
2022/08/15 06:38:48;;;;;;;;;;;21.30;58.20;;;;;;5128074;27;20025;-55
2022/08/15 06:41:18;;;;;;;;;;;21.50;57.10;;;;;;5150373;27;20371;-45
2022/08/15 06:43:44;;;;;;;;;;;20.90;55.10;;;;;;5144461;27;20030;-49
2022/08/15 06:46:10;;;;;;;;;;;20.60;53.40;;;;;;5145415;27;20054;-48
2022/08/15 06:48:36;;;;;;;;;;;20.30;52.80;;;;;;5144792;27;19985;-47
2022/08/15 06:51:03;;;;;;;;;;;20.20;52.40;;;;;;5144851;27;19964;-45
2022/08/15 06:53:37;;;;;;;;;;;19.90;51.90;;;;;;5131579;27;19927;-46
2022/08/15 06:56:06;;;;;;;;;;;20.20;56.10;;;;;;5144502;27;19923;-47
2022/08/15 06:58:37;;;;;;;;;;;20.90;59.50;;;;;;5144398;27;19923;-48
2022/08/15 07:01:33;;;;;;;;;;;21.70;58.70;;;;;;5150023;27;19923;-46
2022/08/15 07:04:19;;;;;;;;;;;21.30;56.10;;;;;;5082240;27;19977;-47
2022/08/15 07:07:05;;;;;;;;;;;20.80;54.10;;;;;;5121265;27;20071;-48
2022/08/15 07:09:44;;;;;;;;;;;20.20;53.70;;;;;;5117261;27;20632;-50
2022/08/15 07:12:21;;;;;;;;;;;20.40;51.90;;;;;;5149625;27;20351;-48
2022/08/15 07:14:47;;;;;;;;;;;20.00;51.80;;;;;;5144226;27;19935;-44
2022/08/15 07:17:20;;;;;;;;;;;20.00;51.60;;;;;;5149623;27;20487;-45
2022/08/15 07:19:46;;;;;;;;;;;19.80;51.60;;;;;;5146454;27;20302;-46
2022/08/15 07:22:12;;;;;;;;;;;20.30;55.40;;;;;;5138897;27;19923;-46
2022/08/15 07:24:40;;;;;;;;;;;20.80;58.80;;;;;;5149127;27;19923;-45
2022/08/15 07:27:07;;;;;;;;;;;21.80;58.10;;;;;;5125142;27;20018;-46
2022/08/15 07:29:36;;;;;;;;;;;21.00;55.90;;;;;;5144158;27;19938;-47
2022/08/15 07:32:07;;;;;;;;;;;20.50;54.20;;;;;;5149478;27;19927;-48
2022/08/15 07:34:33;;;;;;;;;;;20.40;53.10;;;;;;5125377;27;19929;-46
2022/08/15 07:36:59;;;;;;;;;;;20.20;52.70;;;;;;5143663;27;19923;-47
2022/08/15 07:39:27;;;;;;;;;;;19.90;51.90;;;;;;5146097;27;19923;-53
2022/08/15 07:41:53;;;;;;;;;;;19.90;51.70;;;;;;5141227;27;19923;-45
2022/08/15 07:44:21;;;;;;;;;;;19.80;51.40;;;;;;5149124;27;20326;-47
2022/08/15 07:46:52;;;;;;;;;;;20.40;56.40;;;;;;5143753;27;20305;-47
2022/08/15 07:49:19;;;;;;;;;;;21.10;58.70;;;;;;5143362;27;20503;-44
2022/08/15 07:51:49;;;;;;;;;;;21.80;57.20;;;;;;5148876;27;19952;-45
2022/08/15 07:54:28;;;;;;;;;;;21.30;55.10;;;;;;5143244;27;19929;-46
2022/08/15 07:56:58;;;;;;;;;;;20.60;54.10;;;;;;5139994;27;20385;-46
2022/08/15 07:59:28;;;;;;;;;;;20.40;52.70;;;;;;5143346;27;20289;-45
2022/08/15 08:02:16;;;;;;;;;;;20.20;52.60;;;;;;5143166;27;19936;-46
2022/08/15 08:04:42;;;;;;;;;;;20.20;51.80;;;;;;5124738;27;20026;-45
2022/08/15 08:07:19;;;;;;;;;;;20.10;51.70;;;;;;5144716;27;19945;-45
2022/08/15 08:09:46;;;;;;;;;;;19.80;51.40;;;;;;5124806;27;19935;-46
2022/08/15 08:12:20;;;;;;;;;;;19.90;51.90;;;;;;5143144;27;19927;-46
2022/08/15 08:14:52;;;;;;;;;;;20.60;57.10;;;;;;5148672;27;19929;-47
2022/08/15 08:17:44;;;;;;;;;;;21.30;58.50;;;;;;5138176;27;19949;-46
2022/08/15 08:20:19;;;;;;;;;;;21.80;56.50;;;;;;5139923;27;20063;-46
2022/08/15 08:22:57;;;;;;;;;;;20.90;54.90;;;;;;5118125;27;20018;-45
2022/08/15 08:25:50;;;;;;;;;;;20.50;53.50;;;;;;5124296;27;19976;-48
2022/08/15 08:28:20;;;;;;;;;;;20.30;52.40;;;;;;5139701;27;19952;-51
2022/08/15 08:31:04;;;;;;;;;;;20.00;51.90;;;;;;5129826;27;19929;-46
2022/08/15 08:33:39;;;;;;;;;;;20.00;51.90;;;;;;5119913;27;19930;-46
2022/08/15 08:36:09;;;;;;;;;;;19.80;51.60;;;;;;5118710;27;19923;-46
2022/08/15 08:38:37;;;;;;;;;;;20.10;54.90;;;;;;5146241;27;20022;-54
2022/08/15 08:41:24;;;;;;;;;;;20.90;58.10;;;;;;5144858;27;19946;-45
2022/08/15 08:43:56;;;;;;;;;;;21.70;57.60;;;;;;5142613;27;19923;-47
2022/08/15 08:46:28;;;;;;;;;;;21.30;55.20;;;;;;5146447;27;19927;-53
2022/08/15 08:48:55;;;;;;;;;;;20.60;54.30;;;;;;5126647;27;19927;-48
2022/08/15 08:51:34;;;;;;;;;;;20.50;52.80;;;;;;5142383;27;19923;-45
2022/08/15 08:54:29;;;;;;;;;;;20.40;51.80;;;;;;5139763;27;19927;-50
2022/08/15 08:56:55;;;;;;;;;;;19.90;52.30;;;;;;5134099;27;19927;-46
2022/08/15 08:59:25;;;;;;;;;;;19.90;51.70;;;;;;5123909;27;19926;-45
2022/08/15 09:01:52;;;;;;;;;;;20.00;51.20;;;;;;5127736;27;19945;-54
2022/08/15 09:04:18;;;;;;;;;;;19.80;51.50;;;;;;5126535;27;20370;-49
2022/08/15 09:06:46;;;;;;;;;;;20.50;56.70;;;;;;5124009;27;19923;-46
2022/08/15 09:09:31;;;;;;;;;;;21.30;57.90;;;;;;5124970;27;19923;-45
2022/08/15 09:11:58;;;;;;;;;;;21.60;55.90;;;;;;5138845;27;19945;-46
2022/08/15 09:14:24;;;;;;;;;;;20.80;54.10;;;;;;5139104;27;19999;-45
2022/08/15 09:16:51;;;;;;;;;;;20.50;53.00;;;;;;5147915;27;19927;-45
2022/08/15 09:19:17;;;;;;;;;;;20.40;52.20;;;;;;5142559;27;19923;-44
2022/08/15 09:21:42;;;;;;;;;;;20.20;52.00;;;;;;5142233;27;19924;-46
2022/08/15 09:24:08;;;;;;;;;;;20.10;51.20;;;;;;5147658;27;19924;-46
2022/08/15 09:26:53;;;;;;;;;;;19.90;51.00;;;;;;5142246;27;19927;-45
2022/08/15 09:29:23;;;;;;;;;;;20.00;50.80;;;;;;5140973;27;19934;-46
2022/08/15 09:32:09;;;;;;;;;;;20.50;56.90;;;;;;5124982;27;19930;-49
2022/08/15 09:34:58;;;;;;;;;;;21.40;57.60;;;;;;5142075;27;19952;-46
2022/08/15 09:37:28;;;;;;;;;;;21.60;55.30;;;;;;5112200;27;19930;-44
2022/08/15 09:40:03;;;;;;;;;;;21.00;54.00;;;;;;5147498;27;19924;-45
2022/08/15 09:42:32;;;;;;;;;;;20.40;52.60;;;;;;5142027;27;19923;-47
2022/08/15 09:45:16;;;;;;;;;;;20.30;52.20;;;;;;5142114;27;20386;-47
2022/08/15 09:48:01;;;;;;;;;;;20.10;51.80;;;;;;5145841;27;19942;-50
2022/08/15 09:50:46;;;;;;;;;;;19.90;51.40;;;;;;5111146;27;19928;-45
2022/08/15 09:53:12;;;;;;;;;;;19.90;51.00;;;;;;5146047;27;19929;-46
2022/08/15 09:55:46;;;;;;;;;;;19.80;51.00;;;;;;5151367;27;19923;-45
2022/08/15 09:58:20;;;;;;;;;;;20.50;56.10;;;;;;5145753;27;19930;-45
2022/08/15 10:00:57;;;;;;;;;;;21.30;57.60;;;;;;5145490;27;20018;-48
2022/08/15 10:03:42;;;;;;;;;;;21.70;56.10;;;;;;5151078;27;19923;-48
2022/08/15 10:06:11;;;;;;;;;;;21.10;53.80;;;;;;5144315;27;19923;-48
2022/08/15 10:09:03;;;;;;;;;;;20.50;53.20;;;;;;5142142;27;20378;-49
2022/08/15 10:11:32;;;;;;;;;;;20.30;52.70;;;;;;5147089;27;19927;-57
2022/08/15 10:14:07;;;;;;;;;;;20.10;51.90;;;;;;5147787;27;20017;-45
2022/08/15 10:16:36;;;;;;;;;;;20.00;51.60;;;;;;5145293;27;20025;-44
2022/08/15 10:19:09;;;;;;;;;;;20.00;51.20;;;;;;5150879;27;19929;-45
2022/08/15 10:21:35;;;;;;;;;;;20.00;50.50;;;;;;5145540;27;19923;-47
2022/08/15 10:24:05;;;;;;;;;;;20.50;56.30;;;;;;5144905;27;20022;-52
2022/08/15 10:26:30;;;;;;;;;;;21.20;57.60;;;;;;5117567;27;19923;-48
2022/08/15 10:28:59;;;;;;;;;;;21.80;56.20;;;;;;5109432;27;19954;-45
2022/08/15 10:31:30;;;;;;;;;;;21.10;54.60;;;;;;5145021;27;19923;-45
2022/08/15 10:33:59;;;;;;;;;;;20.70;53.40;;;;;;5150544;27;19923;-45
2022/08/15 10:36:26;;;;;;;;;;;20.50;52.40;;;;;;5144834;27;19929;-47
2022/08/15 10:39:13;;;;;;;;;;;20.30;52.00;;;;;;5144946;27;20219;-46
2022/08/15 10:41:50;;;;;;;;;;;20.30;51.40;;;;;;5150559;27;19927;-45
2022/08/15 10:44:36;;;;;;;;;;;20.10;51.50;;;;;;5139855;27;19923;-49
2022/08/15 10:47:21;;;;;;;;;;;20.00;51.30;;;;;;5124618;27;19979;-46
2022/08/15 10:49:52;;;;;;;;;;;20.00;50.60;;;;;;5150345;27;19928;-48
2022/08/15 10:52:26;;;;;;;;;;;20.30;54.30;;;;;;5126170;27;19938;-47
2022/08/15 10:55:12;;;;;;;;;;;21.10;57.10;;;;;;5144624;27;19927;-45
2022/08/15 10:57:44;;;;;;;;;;;21.80;56.30;;;;;;5150108;27;20305;-46
2022/08/15 11:00:13;;;;;;;;;;;21.10;54.10;;;;;;5126590;27;19927;-44
2022/08/15 11:02:43;;;;;;;;;;;20.80;52.60;;;;;;5120440;27;19933;-49
2022/08/15 11:05:10;;;;;;;;;;;20.40;52.20;;;;;;5120217;27;20293;-45
2022/08/15 11:07:36;;;;;;;;;;;20.20;51.90;;;;;;5144254;27;20441;-46
2022/08/15 11:10:08;;;;;;;;;;;20.10;51.50;;;;;;5144193;27;20079;-47
2022/08/15 11:12:36;;;;;;;;;;;20.20;51.00;;;;;;5149711;27;19983;-46
2022/08/15 11:15:13;;;;;;;;;;;20.20;50.60;;;;;;5144306;27;19923;-46
2022/08/15 11:17:43;;;;;;;;;;;20.00;53.00;;;;;;5144370;27;19928;-48
2022/08/15 11:20:14;;;;;;;;;;;20.80;57.10;;;;;;5121403;27;19933;-49
2022/08/15 11:22:57;;;;;;;;;;;21.60;56.60;;;;;;5124068;27;20297;-46
2022/08/15 11:25:24;;;;;;;;;;;21.30;54.60;;;;;;5144197;27;19950;-45
2022/08/15 11:28:00;;;;;;;;;;;20.80;53.20;;;;;;5149794;27;20496;-47
2022/08/15 11:30:29;;;;;;;;;;;20.30;52.80;;;;;;5144067;27;20010;-48
2022/08/15 11:32:55;;;;;;;;;;;20.00;52.70;;;;;;5144785;27;19930;-54
2022/08/15 11:35:27;;;;;;;;;;;20.00;51.70;;;;;;5130035;27;20017;-45
2022/08/15 11:37:57;;;;;;;;;;;20.10;51.00;;;;;;5142673;27;19972;-46
2022/08/15 11:40:25;;;;;;;;;;;20.00;50.90;;;;;;5126593;27;19937;-45
2022/08/15 11:42:50;;;;;;;;;;;20.30;54.00;;;;;;5125148;27;20144;-45
2022/08/15 11:45:20;;;;;;;;;;;21.10;56.50;;;;;;5143737;27;20039;-48
2022/08/15 11:47:47;;;;;;;;;;;21.80;56.00;;;;;;5124996;27;19973;-47
2022/08/15 11:50:22;;;;;;;;;;;21.30;53.80;;;;;;5143632;27;19945;-48
2022/08/15 11:52:50;;;;;;;;;;;20.70;53.00;;;;;;5143739;27;20382;-44
2022/08/15 11:55:16;;;;;;;;;;;20.50;52.40;;;;;;5148891;27;19923;-46
2022/08/15 11:57:49;;;;;;;;;;;20.30;51.80;;;;;;5138651;27;19978;-47
2022/08/15 12:00:21;;;;;;;;;;;20.20;51.50;;;;;;5142713;27;20637;-46
2022/08/15 12:02:47;;;;;;;;;;;20.00;51.20;;;;;;5148929;27;20700;-47
2022/08/15 12:05:15;;;;;;;;;;;20.00;50.80;;;;;;5143366;27;20362;-45
2022/08/15 12:07:41;;;;;;;;;;;20.00;50.10;;;;;;5146466;27;20382;-52
2022/08/15 12:10:12;;;;;;;;;;;20.00;51.70;;;;;;5127672;27;19929;-49
2022/08/15 12:12:38;;;;;;;;;;;20.80;55.20;;;;;;5110701;27;20046;-45
2022/08/15 12:15:09;;;;;;;;;;;21.50;55.90;;;;;;5145483;27;19927;-47
2022/08/15 12:17:35;;;;;;;;;;;21.60;54.30;;;;;;5140679;27;19927;-45
2022/08/15 12:20:04;;;;;;;;;;;20.80;53.10;;;;;;5143143;27;19931;-47
2022/08/15 12:22:34;;;;;;;;;;;20.80;52.20;;;;;;5148177;27;19923;-49
2022/08/15 12:25:00;;;;;;;;;;;20.40;51.70;;;;;;5142826;27;19927;-47
2022/08/15 12:27:26;;;;;;;;;;;20.30;51.00;;;;;;5142850;27;20621;-45
2022/08/15 12:29:52;;;;;;;;;;;20.10;50.90;;;;;;5148302;27;19954;-45
2022/08/15 12:32:18;;;;;;;;;;;20.00;50.80;;;;;;5138616;27;19923;-45
2022/08/15 12:34:44;;;;;;;;;;;20.00;50.30;;;;;;5141712;27;19931;-54
2022/08/15 12:37:14;;;;;;;;;;;19.80;50.60;;;;;;5144176;27;19966;-45
2022/08/15 12:39:44;;;;;;;;;;;20.00;52.20;;;;;;5142686;27;19981;-45
2022/08/15 12:42:10;;;;;;;;;;;20.80;55.70;;;;;;5147839;27;19927;-47
2022/08/15 12:44:37;;;;;;;;;;;21.60;55.50;;;;;;5124022;27;20270;-46
2022/08/15 12:47:03;;;;;;;;;;;21.40;53.70;;;;;;5124101;27;20034;-45
2022/08/15 12:49:28;;;;;;;;;;;21.00;52.60;;;;;;5129530;27;19927;-45
2022/08/15 12:51:54;;;;;;;;;;;20.60;52.20;;;;;;5139078;27;19933;-47
2022/08/15 12:54:20;;;;;;;;;;;20.40;51.70;;;;;;5140028;27;19962;-46
2022/08/15 12:56:46;;;;;;;;;;;20.10;51.60;;;;;;5147618;27;19945;-45
2022/08/15 12:59:12;;;;;;;;;;;20.20;51.00;;;;;;5142335;27;20422;-44
2022/08/15 13:01:38;;;;;;;;;;;20.10;50.90;;;;;;5117037;27;19930;-44
2022/08/15 13:04:06;;;;;;;;;;;20.10;50.50;;;;;;5142403;27;19979;-45
2022/08/15 13:06:40;;;;;;;;;;;20.00;50.60;;;;;;5142643;27;19931;-45
2022/08/15 13:09:06;;;;;;;;;;;19.90;50.40;;;;;;5129651;27;19923;-45
2022/08/15 13:11:32;;;;;;;;;;;19.90;50.30;;;;;;5118743;27;19931;-45
2022/08/15 13:13:58;;;;;;;;;;;19.80;50.30;;;;;;5141948;27;20025;-47
2022/08/15 13:16:23;;;;;;;;;;;20.20;54.40;;;;;;5147665;27;19923;-46
2022/08/15 13:18:49;;;;;;;;;;;21.10;55.70;;;;;;5142002;27;19988;-45
2022/08/15 13:23:59;;;;;;;;;;;21.40;53.60;;;;;;5147618;27;19929;-47
2022/08/15 13:26:25;;;;;;;;;;;20.80;52.90;;;;;;5145767;27;20594;-45
2022/08/15 13:28:53;;;;;;;;;;;20.70;52.00;;;;;;5148181;27;19980;-46
2022/08/15 13:31:19;;;;;;;;;;;20.50;51.50;;;;;;5144752;27;20299;-46
2022/08/15 13:33:46;;;;;;;;;;;20.30;51.40;;;;;;5146218;27;19931;-48
2022/08/15 13:36:13;;;;;;;;;;;20.30;50.90;;;;;;5151860;27;20358;-46
2022/08/15 13:38:46;;;;;;;;;;;20.20;50.80;;;;;;5145986;27;20022;-46
2022/08/15 13:41:12;;;;;;;;;;;20.10;50.50;;;;;;5146009;27;19930;-46
2022/08/15 13:43:40;;;;;;;;;;;20.00;50.70;;;;;;5151499;27;19923;-46
2022/08/15 13:46:07;;;;;;;;;;;20.10;50.00;;;;;;5145954;27;19927;-50
2022/08/15 13:48:34;;;;;;;;;;;20.20;50.30;;;;;;5140436;27;19923;-45
2022/08/15 13:51:00;;;;;;;;;;;20.20;50.00;;;;;;5132748;27;20327;-47
2022/08/15 13:53:26;;;;;;;;;;;20.00;53.50;;;;;;5146009;27;20305;-47
2022/08/15 13:55:52;;;;;;;;;;;20.90;55.50;;;;;;5151233;27;20366;-46
2022/08/15 13:58:18;;;;;;;;;;;21.70;55.60;;;;;;5145790;27;20017;-48
2022/08/15 14:00:44;;;;;;;;;;;21.70;54.00;;;;;;5145829;27;20283;-46
2022/08/15 14:03:10;;;;;;;;;;;20.90;53.40;;;;;;5151082;27;19923;-45
2022/08/15 14:05:36;;;;;;;;;;;20.80;52.10;;;;;;5142193;27;19953;-46
2022/08/15 14:08:02;;;;;;;;;;;20.40;51.60;;;;;;5124587;27;19923;-45
2022/08/15 14:10:27;;;;;;;;;;;20.30;51.60;;;;;;5150975;27;20285;-47
2022/08/15 14:12:53;;;;;;;;;;;20.20;51.30;;;;;;5145503;27;20038;-46
2022/08/15 14:15:19;;;;;;;;;;;20.20;50.60;;;;;;5150745;27;19930;-55
2022/08/15 14:17:45;;;;;;;;;;;20.20;50.50;;;;;;5145974;27;20374;-47
2022/08/15 14:20:12;;;;;;;;;;;19.80;51.00;;;;;;5145385;27;19923;-47
2022/08/15 14:22:38;;;;;;;;;;;20.10;53.10;;;;;;5150616;27;20010;-46
2022/08/15 14:25:07;;;;;;;;;;;20.90;55.90;;;;;;5140074;27;19964;-46
2022/08/15 14:27:33;;;;;;;;;;;21.70;55.50;;;;;;5144922;27;19927;-47
2022/08/15 14:29:59;;;;;;;;;;;21.60;53.90;;;;;;5150569;27;20379;-45
2022/08/15 14:32:25;;;;;;;;;;;20.90;53.00;;;;;;5145174;27;19972;-47